Time;durP1;ratioP1;P1;durP2;ratioP2;P2;SDS_P1;SDS_P2;PMS_P1;PMS_P2;Temp;Humidity;BMP_temperature;BMP_pressure;BME280_temperature;BME280_humidity;BME280_pressure;Samples;Min_cycle;Max_cycle;Signal;HPM_P1;HPM_P2
2023/06/21 00:01:46;;;;;;;3.90;3.10;;;;;;;;;;5072890;28;20575;-34
2023/06/21 00:04:13;;;;;;;3.38;2.80;;;23.30;77.60;;;;;;5072998;28;20497;-38
2023/06/21 00:06:40;;;;;;;3.63;3.05;;;24.20;78.10;;;;;;5073352;28;20127;-38
2023/06/21 00:09:08;;;;;;;4.25;3.00;;;23.80;66.80;;;;;;5072970;28;20140;-34
2023/06/21 00:11:35;;;;;;;4.63;3.20;;;;;;;;;;5073447;28;20445;-39
2023/06/21 00:14:02;;;;;;;3.83;2.88;;;22.80;77.70;;;;;;5072466;28;20405;-38
2023/06/21 00:16:28;;;;;;;3.28;2.70;;;23.70;66.00;;;;;;5073237;28;20059;-37
2023/06/21 00:18:55;;;;;;;3.42;2.70;;;24.20;78.00;;;;;;5093134;28;20127;-39
2023/06/21 00:21:23;;;;;;;4.20;2.75;;;23.40;77.70;;;;;;5093337;28;20048;-40
2023/06/21 00:23:50;;;;;;;3.38;2.50;;;23.90;77.80;;;;;;5092561;28;20080;-37
2023/06/21 00:26:18;;;;;;;3.97;3.00;;;23.50;77.70;;;;;;5093340;28;20123;-36
2023/06/21 00:28:44;;;;;;;4.40;3.10;;;23.60;78.50;;;;;;5092870;28;20127;-38
2023/06/21 00:31:11;;;;;;;3.95;2.70;;;24.80;71.20;;;;;;5092235;28;20412;-37
2023/06/21 00:33:38;;;;;;;5.15;2.60;;;23.80;78.00;;;;;;5092965;28;20123;-38
2023/06/21 00:36:05;;;;;;;4.00;2.70;;;23.60;77.70;;;;;;5092399;28;20059;-39
2023/06/21 00:38:34;;;;;;;3.45;2.60;;;23.60;77.40;;;;;;5092777;28;20051;-36
2023/06/21 00:41:03;;;;;;;3.85;2.80;;;23.70;63.00;;;;;;5092669;28;20829;-36
2023/06/21 00:43:31;;;;;;;3.35;2.90;;;23.50;69.50;;;;;;5092698;28;20075;-38
2023/06/21 00:45:58;;;;;;;3.63;2.90;;;24.00;77.70;;;;;;5092680;28;20078;-37
2023/06/21 00:48:28;;;;;;;3.10;2.70;;;;;;;;;;5089493;28;20481;-37
2023/06/21 00:50:56;;;;;;;4.28;3.00;;;24.10;78.20;;;;;;5072515;28;20056;-37
2023/06/21 00:53:23;;;;;;;4.00;2.83;;;24.40;77.90;;;;;;5071812;28;20055;-36
2023/06/21 00:55:50;;;;;;;4.03;3.25;;;23.50;65.80;;;;;;5072180;28;20045;-37
2023/06/21 00:58:20;;;;;;;3.80;2.92;;;23.40;71.10;;;;;;5072262;28;20049;-36
2023/06/21 01:00:49;;;;;;;3.33;2.92;;;22.90;77.80;;;;;;5072319;28;20052;-39
2023/06/21 01:03:16;;;;;;;2.85;2.53;;;23.90;70.90;;;;;;5071506;28;20091;-37
2023/06/21 01:05:43;;;;;;;3.30;2.90;;;23.60;77.60;;;;;;5078837;28;20121;-38
2023/06/21 01:08:14;;;;;;;3.67;3.20;;;23.70;77.60;;;;;;5092265;28;20135;-38
2023/06/21 01:10:47;;;;;;;2.88;2.50;;;23.70;77.20;;;;;;5092545;28;20044;-37
2023/06/21 01:13:22;;;;;;;4.25;2.80;;;22.70;62.70;;;;;;5092035;28;20497;-37
2023/06/21 01:15:51;;;;;;;;;;;23.70;63.40;;;;;;5092723;28;20515;-39
2023/06/21 01:18:18;;;;;;;4.10;2.97;;;23.40;77.70;;;;;;5092188;28;20074;-36
2023/06/21 01:20:48;;;;;;;4.20;3.10;;;23.60;62.90;;;;;;5092338;28;20172;-37
2023/06/21 01:23:22;;;;;;;4.45;3.08;;;23.60;62.90;;;;;;5077657;28;20505;-36
2023/06/21 01:25:57;;;;;;;4.10;3.03;;;23.90;77.70;;;;;;5072191;28;20052;-39
2023/06/21 01:28:42;;;;;;;3.58;2.95;;;23.30;77.40;;;;;;5086637;28;20421;-36
2023/06/21 01:31:12;;;;;;;3.67;2.95;;;23.60;62.90;;;;;;5091947;28;20048;-40
2023/06/21 01:33:39;;;;;;;3.60;3.00;;;23.50;78.30;;;;;;5091981;28;20059;-37
2023/06/21 01:36:06;;;;;;;3.30;2.78;;;24.00;77.80;;;;;;5091396;28;20492;-37
2023/06/21 01:38:33;;;;;;;3.97;3.15;;;;;;;;;;5092077;28;20127;-38
2023/06/21 01:41:01;;;;;;;4.25;3.17;;;23.70;71.60;;;;;;5091351;28;20130;-36
2023/06/21 01:43:27;;;;;;;3.90;3.20;;;23.40;77.40;;;;;;5091691;28;20048;-35
2023/06/21 01:45:54;;;;;;;2.95;2.53;;;23.40;77.50;;;;;;5091748;28;20048;-36
2023/06/21 01:48:22;;;;;;;3.83;3.00;;;23.60;62.80;;;;;;5091883;28;20123;-35
2023/06/21 01:50:50;;;;;;;3.45;2.90;;;;;;;;;;5092117;28;20083;-35
2023/06/21 01:53:16;;;;;;;4.22;2.92;;;23.40;77.40;;;;;;5091840;28;20090;-38
2023/06/21 01:55:44;;;;;;;4.00;2.92;;;24.00;78.00;;;;;;5090223;28;20052;-40
2023/06/21 01:58:12;;;;;;;4.55;2.92;;;23.20;77.30;;;;;;5091398;28;20464;-40
2023/06/21 02:00:39;;;;;;;3.60;2.90;;;24.00;66.60;;;;;;5091795;28;20491;-37
2023/06/21 02:03:06;;;;;;;3.75;2.95;;;23.60;62.70;;;;;;5091231;28;20135;-35
2023/06/21 02:05:35;;;;;;;3.50;2.90;;;24.80;63.80;;;;;;5091913;28;20403;-34
2023/06/21 02:08:04;;;;;;;3.35;2.75;;;;;;;;;;5091717;28;20055;-36
2023/06/21 02:10:31;;;;;;;3.35;2.90;;;23.50;77.40;;;;;;5091749;28;20468;-35
2023/06/21 02:12:58;;;;;;;3.00;2.63;;;;;;;;;;5089380;28;20048;-37
2023/06/21 02:15:25;;;;;;;4.47;3.00;;;23.90;77.50;;;;;;5094995;28;20135;-37
2023/06/21 02:17:52;;;;;;;4.72;3.13;;;24.60;77.80;;;;;;5095629;28;20147;-40
2023/06/21 02:20:19;;;;;;;3.00;2.70;;;23.60;70.50;;;;;;5095370;28;20552;-37
2023/06/21 02:22:47;;;;;;;4.40;3.00;;;23.60;62.70;;;;;;5095105;28;20101;-37
2023/06/21 02:25:15;;;;;;;2.97;2.67;;;23.50;78.10;;;;;;5095148;28;20571;-40
2023/06/21 02:27:41;;;;;;;3.05;2.58;;;23.40;77.60;;;;;;5095672;28;20080;-38
2023/06/21 02:30:09;;;;;;;3.30;2.80;;;23.10;77.10;;;;;;5091976;28;20048;-39
2023/06/21 02:32:36;;;;;;;3.10;2.70;;;23.20;77.50;;;;;;5090084;28;20147;-35
2023/06/21 02:35:03;;;;;;;3.63;2.95;;;;;;;;;;5095260;28;20105;-36
2023/06/21 02:37:30;;;;;;;3.80;2.95;;;23.40;77.30;;;;;;5094908;28;20467;-38
2023/06/21 02:39:58;;;;;;;3.45;3.13;;;22.70;76.90;;;;;;5094867;28;20054;-38
2023/06/21 02:42:27;;;;;;;3.92;3.15;;;23.60;62.60;;;;;;5094687;28;20130;-36
2023/06/21 02:44:54;;;;;;;3.58;2.80;;;23.30;67.50;;;;;;5095046;28;20059;-35
2023/06/21 02:47:21;;;;;;;3.60;2.95;;;;;;;;;;5089041;28;20047;-37
2023/06/21 02:49:48;;;;;;;3.40;3.10;;;22.50;77.00;;;;;;5074941;28;20051;-40
2023/06/21 02:52:15;;;;;;;4.22;3.13;;;24.70;77.80;;;;;;5074231;28;20482;-38
2023/06/21 02:54:41;;;;;;;3.67;3.28;;;23.80;68.40;;;;;;5074381;28;20056;-37
2023/06/21 02:57:10;;;;;;;3.45;2.85;;;23.60;77.20;;;;;;5074936;28;20474;-36
2023/06/21 02:59:37;;;;;;;4.55;2.80;;;23.40;77.10;;;;;;5074351;28;20413;-36
2023/06/21 03:02:04;;;;;;;5.10;3.08;;;;;;;;;;5074257;28;20499;-33
2023/06/21 03:04:31;;;;;;;3.63;3.25;;;23.70;78.10;;;;;;5078039;28;20127;-39
2023/06/21 03:07:01;;;;;;;3.38;3.00;;;;;;;;;;5094624;28;20052;-36
2023/06/21 03:09:27;;;;;;;4.10;3.35;;;23.70;77.40;;;;;;5095645;28;20067;-39
2023/06/21 03:11:54;;;;;;;3.90;3.17;;;23.50;75.40;;;;;;5094599;28;20134;-36
2023/06/21 03:14:22;;;;;;;3.88;3.47;;;24.40;78.00;;;;;;5094041;28;20580;-37
2023/06/21 03:16:49;;;;;;;3.58;3.17;;;22.70;77.50;;;;;;5094307;28;20131;-36
2023/06/21 03:19:17;;;;;;;4.15;3.75;;;;;;;;;;5094413;28;20052;-34
2023/06/21 03:21:45;;;;;;;4.85;3.30;;;;;;;;;;5082892;28;20053;-35
2023/06/21 03:24:12;;;;;;;4.28;3.80;;;;;;;;;;5073814;28;20048;-35
2023/06/21 03:26:39;;;;;;;4.20;3.60;;;;;;;;;;5073976;28;20114;-39
2023/06/21 03:29:06;;;;;;;4.00;3.50;;;;;;;;;;5074137;28;20052;-38
2023/06/21 03:31:34;;;;;;;4.60;3.83;;;23.10;77.70;;;;;;5074142;28;20048;-37
2023/06/21 03:34:01;;;;;;;5.03;3.75;;;23.40;77.10;;;;;;5077247;28;20052;-36
2023/06/21 03:36:28;;;;;;;5.30;4.07;;;23.30;77.50;;;;;;5078756;28;20131;-38
2023/06/21 03:38:55;;;;;;;4.82;3.97;;;23.00;69.80;;;;;;5093850;28;20514;-36
2023/06/21 03:41:21;;;;;;;4.63;4.10;;;23.40;77.40;;;;;;5093963;28;20131;-38
2023/06/21 03:43:48;;;;;;;4.03;3.63;;;23.50;77.30;;;;;;5093885;28;20052;-40
2023/06/21 03:46:15;;;;;;;4.70;3.90;;;23.50;64.90;;;;;;5094008;28;20135;-35
2023/06/21 03:48:43;;;;;;;4.20;3.80;;;23.40;77.10;;;;;;5089527;28;20461;-38
2023/06/21 03:51:10;;;;;;;4.65;4.00;;;;;;;;;;5092368;28;20455;-37
2023/06/21 03:53:37;;;;;;;4.53;3.97;;;;;;;;;;5093535;28;20154;-35
2023/06/21 03:56:04;;;;;;;4.72;3.97;;;22.70;76.80;;;;;;5093960;28;20074;-38
2023/06/21 03:58:31;;;;;;;5.38;4.60;;;;;;;;;;5093640;28;20127;-35
2023/06/21 04:00:58;;;;;;;4.93;4.10;;;24.20;77.80;;;;;;5093227;28;20040;-38
2023/06/21 04:03:25;;;;;;;4.80;4.30;;;23.00;77.30;;;;;;5093093;28;20126;-37
2023/06/21 04:05:53;;;;;;;4.93;4.13;;;23.50;62.40;;;;;;5075673;28;20132;-37
2023/06/21 04:08:20;;;;;;;5.60;4.57;;;;;;;;;;5073318;28;20045;-35
2023/06/21 04:10:46;;;;;;;5.15;4.60;;;23.50;77.90;;;;;;5081202;28;20123;-37
2023/06/21 04:13:13;;;;;;;5.80;5.20;;;24.20;77.50;;;;;;5082207;28;20048;-39
2023/06/21 04:15:40;;;;;;;5.10;4.60;;;23.20;67.90;;;;;;5093041;28;20071;-36
2023/06/21 04:18:06;;;;;;;7.47;4.95;;;23.00;77.20;;;;;;5093424;28;20139;-37
2023/06/21 04:20:33;;;;;;;6.43;4.88;;;23.30;77.10;;;;;;5092703;28;20044;-36
2023/06/21 04:23:02;;;;;;;5.88;5.25;;;22.70;68.70;;;;;;5092915;28;20055;-36
2023/06/21 04:25:28;;;;;;;6.70;5.28;;;23.80;77.30;;;;;;5093136;28;20097;-37
2023/06/21 04:27:55;;;;;;;6.47;5.65;;;23.70;78.10;;;;;;5092977;28;20130;-36
2023/06/21 04:30:22;;;;;;;5.72;5.13;;;;;;;;;;5092983;28;20046;-36
2023/06/21 04:32:49;;;;;;;5.82;5.22;;;;;;;;;;5087875;28;20131;-34
2023/06/21 04:35:16;;;;;;;6.63;5.55;;;;;;;;;;5081501;28;20048;-34
2023/06/21 04:37:45;;;;;;;7.57;5.57;;;23.40;76.90;;;;;;5086036;28;20048;-36
2023/06/21 04:40:16;;;;;;;7.80;6.72;;;23.00;77.30;;;;;;5091789;28;20064;-35
2023/06/21 04:42:43;;;;;;;7.85;5.90;;;;;;;;;;5092810;28;20504;-37
2023/06/21 04:45:14;;;;;;;8.23;7.32;;;23.40;78.00;;;;;;5092582;28;20055;-36
2023/06/21 04:47:41;;;;;;;9.00;8.10;;;;;;;;;;5092030;28;20048;-37
2023/06/21 04:50:08;;;;;;;8.30;7.47;;;23.20;77.00;;;;;;5082067;28;20054;-40
2023/06/21 04:52:36;;;;;;;11.13;9.95;;;;;;;;;;5082662;28;20123;-34
2023/06/21 04:55:03;;;;;;;10.55;9.07;;;;;;;;;;5082802;28;20055;-34
2023/06/21 04:57:31;;;;;;;10.35;9.30;;;23.20;77.50;;;;;;5082454;28;20045;-38
2023/06/21 04:59:58;;;;;;;12.68;11.27;;;23.00;77.40;;;;;;5080878;28;20043;-38
2023/06/21 05:02:25;;;;;;;11.35;10.02;;;;;;;;;;5082401;28;20040;-37
2023/06/21 05:04:52;;;;;;;12.20;10.43;;;24.10;71.70;;;;;;5080045;28;20055;-36
2023/06/21 05:07:19;;;;;;;13.38;11.10;;;23.10;77.60;;;;;;5082469;28;20135;-36
2023/06/21 05:09:46;;;;;;;15.50;11.68;;;;;;;;;;5074223;28;20119;-37
2023/06/21 05:12:12;;;;;;;13.25;11.88;;;24.00;78.20;;;;;;5076020;28;20134;-38
2023/06/21 05:14:40;;;;;;;15.75;12.00;;;23.40;78.70;;;;;;5077299;28;20470;-42
2023/06/21 05:17:07;;;;;;;13.82;12.35;;;23.30;78.40;;;;;;5071536;28;20048;-36
2023/06/21 05:19:34;;;;;;;14.48;12.77;;;23.40;76.80;;;;;;5071693;28;20127;-35
2023/06/21 05:22:01;;;;;;;18.50;13.15;;;24.00;78.60;;;;;;5071263;28;20079;-36
2023/06/21 05:24:28;;;;;;;15.63;13.95;;;;;;;;;;5071422;28;20155;-33
2023/06/21 05:26:55;;;;;;;15.45;13.85;;;23.00;78.10;;;;;;5071348;28;20056;-37
2023/06/21 05:29:24;;;;;;;15.80;14.07;;;23.20;78.30;;;;;;5071894;28;20045;-39
2023/06/21 05:31:52;;;;;;;16.10;14.40;;;23.10;78.10;;;;;;5072116;28;20040;-36
2023/06/21 05:34:19;;;;;;;17.63;15.45;;;23.80;79.00;;;;;;5071542;28;20584;-38
2023/06/21 05:36:45;;;;;;;16.52;14.55;;;23.90;79.30;;;;;;5079033;28;20048;-37
2023/06/21 05:39:13;;;;;;;19.38;16.08;;;;;;;;;;5078223;28;20123;-36
2023/06/21 05:41:40;;;;;;;17.30;15.45;;;23.20;70.00;;;;;;5092133;28;20051;-36
2023/06/21 05:44:06;;;;;;;17.52;15.20;;;23.30;67.60;;;;;;5091433;28;20131;-35
2023/06/21 05:46:33;;;;;;;16.10;14.48;;;24.30;79.40;;;;;;5092133;28;20131;-36
2023/06/21 05:49:01;;;;;;;16.40;14.70;;;22.70;79.50;;;;;;5092499;28;20560;-36
2023/06/21 05:51:28;;;;;;;17.73;15.25;;;23.60;80.00;;;;;;5096024;28;20139;-37
2023/06/21 05:53:56;;;;;;;18.42;15.05;;;;;;;;;;5094706;28;20048;-35
2023/06/21 05:56:24;;;;;;;16.27;14.07;;;;;;;;;;5075797;28;20101;-33
2023/06/21 05:58:51;;;;;;;15.73;14.02;;;23.20;69.30;;;;;;5075563;28;20106;-36
2023/06/21 06:01:18;;;;;;;15.65;14.02;;;23.30;79.10;;;;;;5075527;28;20132;-39
2023/06/21 06:03:44;;;;;;;16.75;14.60;;;24.00;79.60;;;;;;5075407;28;20045;-34
2023/06/21 06:06:14;;;;;;;16.33;14.52;;;23.20;64.30;;;;;;5075437;28;20135;-35
2023/06/21 06:08:40;;;;;;;16.05;14.35;;;24.20;79.60;;;;;;5086115;28;20068;-37
2023/06/21 06:11:07;;;;;;;15.68;14.07;;;;;;;;;;5093776;28;20134;-36
2023/06/21 06:13:34;;;;;;;17.58;14.68;;;23.50;79.40;;;;;;5074989;28;20052;-39
2023/06/21 06:16:02;;;;;;;15.70;14.10;;;23.70;80.20;;;;;;5075442;28;20135;-42
2023/06/21 06:18:29;;;;;;;17.63;15.23;;;23.60;66.30;;;;;;5075171;28;20052;-38
2023/06/21 06:20:56;;;;;;;16.33;14.18;;;;;;;;;;5074738;28;20049;-35
2023/06/21 06:23:24;;;;;;;19.35;14.70;;;23.50;79.80;;;;;;5074861;28;20128;-39
2023/06/21 06:25:51;;;;;;;16.65;14.90;;;22.40;79.30;;;;;;5075204;28;20070;-38
2023/06/21 06:28:19;;;;;;;16.02;14.25;;;;;;;;;;5080072;28;20083;-36
2023/06/21 06:30:46;;;;;;;17.67;15.15;;;;;;;;;;5095085;28;20044;-37
2023/06/21 06:33:12;;;;;;;16.95;14.27;;;23.20;79.70;;;;;;5094689;28;20130;-39
2023/06/21 06:35:39;;;;;;;16.70;14.90;;;22.40;79.20;;;;;;5095267;28;20130;-38
2023/06/21 06:38:06;;;;;;;17.85;14.63;;;;;;;;;;5093707;28;20757;-39
2023/06/21 06:40:35;;;;;;;15.90;14.20;;;23.00;80.20;;;;;;5079845;28;20568;-40
2023/06/21 06:43:02;;;;;;;15.65;13.90;;;23.20;67.20;;;;;;5084917;28;20044;-37
2023/06/21 06:45:29;;;;;;;15.88;14.23;;;23.40;79.70;;;;;;5084901;28;20570;-40
2023/06/21 06:47:56;;;;;;;15.25;13.65;;;23.40;80.50;;;;;;5074599;28;20506;-40
2023/06/21 06:50:23;;;;;;;16.40;13.43;;;23.30;74.60;;;;;;5074584;28;20132;-37
2023/06/21 06:52:49;;;;;;;14.20;12.55;;;23.20;79.80;;;;;;5074168;28;20510;-40
2023/06/21 06:55:16;;;;;;;14.07;12.18;;;22.30;71.70;;;;;;5074371;28;20128;-40
2023/06/21 06:57:44;;;;;;;14.05;11.73;;;22.80;71.30;;;;;;5074498;28;20094;-39
2023/06/21 07:00:14;;;;;;;12.45;11.05;;;24.20;66.50;;;;;;5073730;28;20123;-38
2023/06/21 07:02:41;;;;;;;12.15;10.88;;;22.50;66.10;;;;;;5075577;28;20052;-38
2023/06/21 07:05:08;;;;;;;12.05;10.52;;;23.30;80.00;;;;;;5082582;28;20044;-40
2023/06/21 07:07:35;;;;;;;12.43;10.82;;;;;;;;;;5089412;28;20125;-36
2023/06/21 07:10:02;;;;;;;12.05;10.75;;;23.80;79.40;;;;;;5084007;28;20054;-39
2023/06/21 07:12:28;;;;;;;11.63;10.43;;;22.50;78.80;;;;;;5073528;28;20048;-40
2023/06/21 07:14:56;;;;;;;11.68;10.48;;;23.90;68.80;;;;;;5091570;28;20394;-38
2023/06/21 07:17:25;;;;;;;10.98;9.88;;;23.20;66.50;;;;;;5093593;28;20050;-35
2023/06/21 07:19:52;;;;;;;10.85;9.75;;;23.80;79.80;;;;;;5090171;28;20101;-40
2023/06/21 07:22:19;;;;;;;10.57;9.40;;;;;;;;;;5093478;28;20048;-38
2023/06/21 07:24:46;;;;;;;10.48;9.38;;;23.30;79.10;;;;;;5085396;28;20072;-40
2023/06/21 07:27:13;;;;;;;10.18;9.15;;;23.40;79.00;;;;;;5081690;28;20171;-40
2023/06/21 07:29:40;;;;;;;11.48;9.38;;;24.60;75.00;;;;;;5082620;28;20055;-39
2023/06/21 07:32:08;;;;;;;10.30;9.23;;;23.90;79.30;;;;;;5085532;28;20143;-39
2023/06/21 07:34:35;;;;;;;10.57;9.48;;;23.40;78.80;;;;;;5076538;28;20048;-38
2023/06/21 07:37:01;;;;;;;9.68;8.50;;;24.20;80.00;;;;;;5092152;28;20052;-40
2023/06/21 07:39:28;;;;;;;9.55;8.55;;;24.20;73.30;;;;;;5085528;28;20095;-39
2023/06/21 07:41:55;;;;;;;9.68;8.60;;;;;;;;;;5079843;28;20054;-38
2023/06/21 07:44:22;;;;;;;10.95;9.00;;;;;;;;;;5085123;28;20055;-36
2023/06/21 07:46:51;;;;;;;9.10;8.20;;;23.60;79.00;;;;;;5082873;28;20045;-39
2023/06/21 07:49:19;;;;;;;9.38;8.05;;;23.70;79.10;;;;;;5082331;28;20044;-40
2023/06/21 07:51:45;;;;;;;8.73;7.43;;;23.10;79.50;;;;;;5072977;28;20045;-39
2023/06/21 07:54:13;;;;;;;8.93;7.90;;;;;;;;;;5072035;28;20075;-36
2023/06/21 07:56:39;;;;;;;8.25;7.30;;;22.60;69.70;;;;;;5072008;28;20132;-39
2023/06/21 07:59:07;;;;;;;9.25;7.50;;;;;;;;;;5073113;28;20463;-36
2023/06/21 08:01:34;;;;;;;8.65;7.72;;;22.90;78.50;;;;;;5079262;28;20420;-40
2023/06/21 08:04:01;;;;;;;8.18;7.10;;;22.90;79.10;;;;;;5081999;28;20420;-39
2023/06/21 08:06:29;;;;;;;11.85;7.55;;;24.40;79.60;;;;;;5080574;28;20058;-40
2023/06/21 08:08:56;;;;;;;7.50;6.75;;;23.60;74.40;;;;;;5077131;28;20068;-37
2023/06/21 08:11:23;;;;;;;7.65;6.78;;;22.50;65.70;;;;;;5076696;28;20040;-37
2023/06/21 08:13:49;;;;;;;7.72;6.95;;;23.50;79.40;;;;;;5082373;28;20472;-39
2023/06/21 08:16:16;;;;;;;8.35;6.72;;;23.40;78.60;;;;;;5082703;28;20050;-38
2023/06/21 08:18:43;;;;;;;6.90;6.10;;;;;;;;;;5089371;28;20132;-36
2023/06/21 08:21:10;;;;;;;6.82;5.97;;;23.90;78.60;;;;;;5092989;28;20044;-40
2023/06/21 08:23:38;;;;;;;7.15;6.28;;;23.60;79.20;;;;;;5092454;28;20740;-40
2023/06/21 08:26:05;;;;;;;7.82;5.85;;;23.80;78.60;;;;;;5093138;28;20139;-40
2023/06/21 08:28:31;;;;;;;7.65;6.05;;;23.10;67.30;;;;;;5092124;28;20588;-38
2023/06/21 08:30:58;;;;;;;6.43;5.68;;;24.20;78.50;;;;;;5092659;28;20055;-40
2023/06/21 08:33:25;;;;;;;7.05;5.85;;;23.60;78.30;;;;;;5092537;28;20131;-39
2023/06/21 08:35:52;;;;;;;7.05;5.53;;;24.80;67.40;;;;;;5092167;28;20135;-38
2023/06/21 08:38:19;;;;;;;6.07;5.47;;;23.60;79.10;;;;;;5092852;28;20146;-39
2023/06/21 08:40:47;;;;;;;6.55;5.55;;;23.50;78.20;;;;;;5092347;28;20581;-39
2023/06/21 08:43:13;;;;;;;6.05;5.45;;;24.20;78.90;;;;;;5092284;28;20048;-39
2023/06/21 08:45:40;;;;;;;6.93;5.68;;;23.80;63.70;;;;;;5092074;28;20051;-36
2023/06/21 08:48:07;;;;;;;7.45;5.70;;;23.80;78.30;;;;;;5075869;28;20124;-40
2023/06/21 08:50:35;;;;;;;6.15;5.55;;;23.80;63.70;;;;;;5072342;28;20131;-36
2023/06/21 08:53:02;;;;;;;6.00;5.28;;;23.70;78.20;;;;;;5071575;28;20497;-39
2023/06/21 08:55:29;;;;;;;6.20;5.10;;;24.00;68.50;;;;;;5072298;28;20056;-37
2023/06/21 08:57:58;;;;;;;6.47;5.28;;;24.50;78.70;;;;;;5083163;28;20052;-39
2023/06/21 09:00:27;;;;;;;6.10;5.03;;;24.10;76.60;;;;;;5092687;28;20135;-40
2023/06/21 09:02:57;;;;;;;5.53;4.85;;;23.80;63.60;;;;;;5091353;28;20098;-36
2023/06/21 09:05:27;;;;;;;5.93;5.18;;;24.20;79.10;;;;;;5092070;28;20508;-39
2023/06/21 09:07:54;;;;;;;5.78;4.88;;;23.60;77.90;;;;;;5092643;28;20060;-39
2023/06/21 09:10:21;;;;;;;6.70;5.50;;;;;;;;;;5092317;28;20173;-36
2023/06/21 09:12:48;;;;;;;7.53;5.50;;;23.90;78.90;;;;;;5092149;28;20047;-39
2023/06/21 09:15:16;;;;;;;6.40;5.00;;;23.80;63.50;;;;;;5091448;28;20059;-36
2023/06/21 09:17:43;;;;;;;7.95;5.13;;;24.40;75.10;;;;;;5088338;28;20477;-39
2023/06/21 09:20:11;;;;;;;6.05;4.82;;;23.80;78.50;;;;;;5078578;28;20063;-40
2023/06/21 09:22:38;;;;;;;5.68;4.90;;;24.40;79.00;;;;;;5071181;28;20124;-39
2023/06/21 09:25:05;;;;;;;6.07;4.80;;;24.10;78.90;;;;;;5071754;28;20045;-40
2023/06/21 09:27:32;;;;;;;5.82;5.20;;;;;;;;;;5071665;28;20131;-39
2023/06/21 09:29:59;;;;;;;6.80;5.15;;;23.70;65.40;;;;;;5071647;28;20144;-36
2023/06/21 09:32:27;;;;;;;5.85;4.68;;;23.00;64.30;;;;;;5071222;28;20123;-40
2023/06/21 09:34:54;;;;;;;5.30;4.55;;;23.80;77.80;;;;;;5071978;28;20159;-39
2023/06/21 09:37:31;;;;;;;7.68;4.78;;;23.90;63.40;;;;;;5082633;28;20138;-40
2023/06/21 09:39:58;;;;;;;5.43;4.93;;;24.60;74.80;;;;;;5078704;28;20053;-39
2023/06/21 09:42:25;;;;;;;5.25;4.70;;;24.30;78.00;;;;;;5083455;28;20040;-39
2023/06/21 09:44:52;;;;;;;5.22;4.72;;;;;;;;;;5091498;28;20054;-37
2023/06/21 09:47:19;;;;;;;4.97;4.50;;;23.90;78.70;;;;;;5091353;28;20132;-40
2023/06/21 09:49:47;;;;;;;5.78;4.70;;;23.90;63.30;;;;;;5091808;28;20128;-36
2023/06/21 09:52:14;;;;;;;5.25;4.60;;;23.40;63.00;;;;;;5091620;28;20044;-36
2023/06/21 09:54:42;;;;;;;5.60;4.47;;;24.40;78.70;;;;;;5090500;28;20544;-39
2023/06/21 09:57:09;;;;;;;5.13;4.30;;;;;;;;;;5081148;28;20086;-37
2023/06/21 09:59:36;;;;;;;4.80;4.15;;;24.80;78.20;;;;;;5071451;28;20131;-40
2023/06/21 10:02:03;;;;;;;5.15;4.32;;;;;;;;;;5071371;28;20128;-33
2023/06/21 10:04:31;;;;;;;4.40;4.00;;;;;;;;;;5080345;28;20131;-37
2023/06/21 10:06:59;;;;;;;6.05;4.18;;;23.50;78.00;;;;;;5083470;28;20055;-39
2023/06/21 10:09:26;;;;;;;5.07;4.15;;;;;;;;;;5076718;28;20140;-38
2023/06/21 10:11:54;;;;;;;8.27;4.00;;;;;;;;;;5071416;28;20062;-35
2023/06/21 10:14:21;;;;;;;5.93;4.07;;;23.90;76.80;;;;;;5079852;28;20066;-37
2023/06/21 10:16:49;;;;;;;5.20;4.40;;;23.80;77.80;;;;;;5079126;28;20125;-39
2023/06/21 10:19:16;;;;;;;5.78;3.67;;;24.00;63.00;;;;;;5079666;28;20127;-36
2023/06/21 10:21:43;;;;;;;5.45;4.10;;;24.00;71.70;;;;;;5079164;28;20050;-37
2023/06/21 10:24:13;;;;;;;4.70;4.05;;;23.90;77.40;;;;;;5083780;28;20127;-39
2023/06/21 10:26:40;;;;;;;5.25;4.05;;;;;;;;;;5079209;28;20048;-36
2023/06/21 10:29:07;;;;;;;3.85;3.50;;;;;;;;;;5085600;28;20568;-34
2023/06/21 10:31:34;;;;;;;6.53;3.90;;;24.00;77.20;;;;;;5091486;28;20128;-36
2023/06/21 10:34:00;;;;;;;5.53;3.70;;;25.00;77.70;;;;;;5083173;28;20135;-36
2023/06/21 10:36:33;;;;;;;4.93;3.35;;;24.10;62.70;;;;;;5093628;28;20048;-34
2023/06/21 10:39:03;;;;;;;7.93;3.78;;;24.00;69.90;;;;;;5095288;28;20134;-38
2023/06/21 10:41:31;;;;;;;4.30;3.45;;;24.20;77.00;;;;;;5090566;28;20094;-38
2023/06/21 10:43:58;;;;;;;5.40;3.55;;;24.80;77.80;;;;;;5094364;28;20131;-40
2023/06/21 10:46:25;;;;;;;5.00;3.90;;;25.40;78.00;;;;;;5094080;28;20557;-40
2023/06/21 10:48:53;;;;;;;7.38;3.78;;;;;;;;;;5094826;28;20079;-38
2023/06/21 10:51:20;;;;;;;4.13;3.42;;;;;;;;;;5094658;28;20056;-39
2023/06/21 10:53:47;;;;;;;5.53;3.40;;;23.60;76.80;;;;;;5094333;28;20126;-40
2023/06/21 10:56:16;;;;;;;6.30;4.10;;;;;;;;;;5094880;28;20055;-37
2023/06/21 10:58:44;;;;;;;4.40;3.63;;;24.20;62.60;;;;;;5094674;28;20071;-38
2023/06/21 11:01:11;;;;;;;4.45;3.42;;;;;;;;;;5094572;28;20044;-36
2023/06/21 11:03:38;;;;;;;5.45;3.70;;;;;;;;;;5085224;28;20047;-36
2023/06/21 11:06:26;;;;;;;5.40;3.22;;;23.70;77.40;;;;;;5094363;28;20055;-41
2023/06/21 11:08:53;;;;;;;4.28;3.30;;;24.90;77.60;;;;;;5094598;28;20097;-40
2023/06/21 11:11:30;;;;;;;4.93;3.45;;;24.10;77.00;;;;;;5094348;28;20135;-40
2023/06/21 11:13:58;;;;;;;4.22;3.30;;;24.20;69.50;;;;;;5094003;28;20566;-40
2023/06/21 11:16:25;;;;;;;6.30;3.60;;;25.00;69.80;;;;;;5094318;28;20090;-41
2023/06/21 11:18:55;;;;;;;3.67;2.83;;;24.20;62.40;;;;;;5094460;28;20447;-37
2023/06/21 11:21:37;;;;;;;5.40;3.20;;;24.50;77.30;;;;;;5093355;28;20048;-40
2023/06/21 11:24:06;;;;;;;4.82;3.20;;;24.10;77.50;;;;;;5094158;28;20056;-40
2023/06/21 11:26:58;;;;;;;5.63;2.95;;;24.20;62.40;;;;;;5094041;28;20052;-37
2023/06/21 11:29:28;;;;;;;4.50;3.28;;;24.40;63.70;;;;;;5094337;28;20436;-40
2023/06/21 11:32:11;;;;;;;3.80;3.13;;;24.30;62.40;;;;;;5094207;28;20048;-40
2023/06/21 11:34:38;;;;;;;3.40;2.95;;;24.60;77.00;;;;;;5094156;28;20132;-41
2023/06/21 11:37:35;;;;;;;4.78;3.10;;;24.30;63.80;;;;;;5092411;28;20040;-40
2023/06/21 11:40:03;;;;;;;3.40;3.10;;;24.30;77.40;;;;;;5094070;28;20128;-40
2023/06/21 11:42:33;;;;;;;3.90;2.78;;;24.20;62.40;;;;;;5093848;28;20055;-40
2023/06/21 11:45:20;;;;;;;5.53;3.30;;;23.90;76.60;;;;;;5093868;28;20062;-40
2023/06/21 11:48:05;;;;;;;5.10;2.97;;;23.90;70.20;;;;;;5093390;28;20471;-40
2023/06/21 11:50:33;;;;;;;4.13;3.00;;;24.00;62.40;;;;;;5093795;28;20056;-38
2023/06/21 11:53:16;;;;;;;3.50;2.90;;;24.30;68.10;;;;;;5093468;28;20051;-37
2023/06/21 11:55:43;;;;;;;3.53;3.20;;;23.30;77.30;;;;;;5092359;28;20048;-41
2023/06/21 11:58:10;;;;;;;3.42;2.78;;;24.40;74.10;;;;;;5093473;28;20074;-40
2023/06/21 12:00:38;;;;;;;3.15;2.85;;;24.70;77.20;;;;;;5093111;28;20097;-41
2023/06/21 12:03:06;;;;;;;5.03;3.38;;;23.70;77.00;;;;;;5093072;28;20052;-40
2023/06/21 12:05:47;;;;;;;4.45;3.00;;;24.10;76.60;;;;;;5093540;28;20401;-40
2023/06/21 12:08:13;;;;;;;2.95;2.65;;;24.00;76.50;;;;;;5093086;28;20131;-41
2023/06/21 12:10:40;;;;;;;3.10;2.60;;;23.30;66.50;;;;;;5091417;28;20071;-40
2023/06/21 12:13:07;;;;;;;3.53;2.80;;;24.50;76.80;;;;;;5093102;28;20048;-40
2023/06/21 12:15:34;;;;;;;3.40;2.90;;;;;;;;;;5092935;28;20063;-37
2023/06/21 12:18:03;;;;;;;3.58;2.90;;;23.30;76.40;;;;;;5093057;28;20135;-41
2023/06/21 12:20:29;;;;;;;3.30;3.00;;;24.00;76.30;;;;;;5092763;28;20558;-38
2023/06/21 12:22:56;;;;;;;3.75;3.08;;;;;;;;;;5092436;28;20054;-41
2023/06/21 12:25:23;;;;;;;4.47;2.70;;;24.80;77.50;;;;;;5092679;28;20050;-41
2023/06/21 12:27:53;;;;;;;3.10;2.80;;;24.30;76.50;;;;;;5091450;28;20123;-40
2023/06/21 12:30:20;;;;;;;3.00;2.53;;;24.20;77.20;;;;;;5092658;28;20051;-40
2023/06/21 12:32:49;;;;;;;3.28;2.70;;;24.40;66.30;;;;;;5092630;28;20404;-38
2023/06/21 12:35:18;;;;;;;3.65;2.90;;;24.30;62.00;;;;;;5092483;28;20048;-40
2023/06/21 12:37:46;;;;;;;3.15;2.70;;;24.40;65.40;;;;;;5091960;28;20127;-37
2023/06/21 12:40:14;;;;;;;3.58;2.75;;;24.30;62.10;;;;;;5092600;28;20173;-40
2023/06/21 12:42:41;;;;;;;3.97;2.63;;;24.10;76.20;;;;;;5091786;28;20054;-40
2023/06/21 12:45:12;;;;;;;4.45;3.00;;;23.60;76.70;;;;;;5079619;28;20048;-38
2023/06/21 12:47:39;;;;;;;3.42;2.42;;;24.40;76.20;;;;;;5072569;28;20075;-41
2023/06/21 12:50:07;;;;;;;3.38;2.50;;;24.40;69.80;;;;;;5072030;28;20246;-38
2023/06/21 12:52:35;;;;;;;3.00;2.47;;;24.40;65.30;;;;;;5071858;28;20053;-40
2023/06/21 12:55:03;;;;;;;4.18;2.53;;;;;;;;;;5071998;28;20131;-39
2023/06/21 12:57:31;;;;;;;3.20;2.50;;;24.60;65.70;;;;;;5071599;28;20505;-39
2023/06/21 12:59:58;;;;;;;2.60;2.33;;;24.10;68.60;;;;;;5086153;28;20059;-40
2023/06/21 13:02:27;;;;;;;3.13;2.53;;;;;;;;;;5091902;28;20055;-41
2023/06/21 13:04:56;;;;;;;3.50;2.88;;;24.30;66.80;;;;;;5092116;28;20055;-39
2023/06/21 13:07:23;;;;;;;3.15;2.60;;;24.80;77.10;;;;;;5091991;28;20501;-41